Detall de PIREP

Printer-friendly versionPDF version

[2012/09/28 17:34:00]
Flight IATA:CT0001
Pilot Number:044
Company ICAO:CAT
Aircraft Type:BE20/A
PAX:4
Departing Airport: LEMS
Destination Airport: LELL
Alternate Airport:LEIG
Online: VATSIM
Route:VFR
Flight Level:A030
No Slew and time accel
No pause
Crash detect
Detect pilot in Cockpit between each 30 and 45 minutes
17:34 Zero fuel Weight: 9057 Lbs, Fuel Weight: 1219 Lbs
17:34 VATSIM:No METAR available for LEMS.
17:34 VATSIM:LELL 281700Z 07004KT 010V120 9999 FEW070 22/08 Q1012
17:34 VOICE CATALONIAN
17:35 Parking Brakes off
17:40 Take-off
17:40 Take off Weight: 10240 Lbs
17:40 Wind: 046º @ 007 Knots Heading: 065º
17:40 POS N41º 46´ 34´´ E001º 53´ 30´´
17:40 Flaps:2 at 108 Knots
17:41 Gear Up: 111 Knots
17:41 Flaps:1 at 114 Knots
17:41 Flaps:0 at 116 Knots
17:42 Flaps:1 at 172 Knots
17:42 Flaps:0 at 173 Knots
17:43 TOC
17:43 Fuel Weight: 1152 Lb
17:45 TOD
17:45 Fuel Weight: 1135 Lb
17:51 Flaps:1 at 159 Knots
17:51 Flaps:2 at 158 Knots
17:51 Gear Down: 157 Knots
17:52 TouchDown:Rate -290 ft/min Speed: 116 Knots
17:52 VATSIM:LELL 281730Z 07006KT 010V120 9999 FEW070 22/07 Q1012
17:52 Land
17:52 Wind:066º@006 Knots
17:52 Heading: 130º
17:52 Flight Duration: 00:12
17:52 Landing Weight: 10149 Lbs
17:52 POS N41º 31´ 03´´ E002º 06´ 38´´
17:54 Parking brakes on
17:54 Block to Block Duration: 00:19
17:54 Final Fuel: 1086 Lbls
17:54 Spent Fuel: 132 Lbls
17:54 Flight Length: 34 NM
17:54 TOD Land Length: 19 NM

Exportar CSV

Powered by Drupal - Modified by Danger4k